ANTO2: Kiamichi River, Antlers, OKla

                                SHEF ID:       ANTO2     Kiamichi River near Antlers, OK
STATION TYPE:
Regulating: Stage = 22.00, Flow = 20000

PRECIP PRECIP(A) STAGE RIV-FLOW BAT-LOAD
in in ft cfs volt
Ccp-Rev Ccp-Rev Ccp-Rev Ccp-Rev Ccp-Rev
(America/Chicago)
02/17 00:00 0.00 ---- 8.10 2790 12.55
02/17 01:00 0.00 ---- 7.99 2710 12.53
02/17 02:00 0.00 ---- 7.90 2640 12.51
02/17 03:00 0.00 ---- 7.80 2570 12.50
02/17 04:00 0.00 ---- 7.72 2510 12.48
02/17 05:00 0.00 ---- 7.63 2450 12.46
02/17 06:00 0.00 ---- 7.55 2400 12.46
02/17 07:00 0.00 ---- 7.47 2340 12.46
02/17 08:00 0.00 ---- 7.39 2280 12.47
02/17 09:00 0.00 ---- 7.32 2240 12.52
02/17 10:00 0.00 ---- 7.24 2180 12.63
02/17 11:00 0.00 ---- 7.15 2130 13.01
02/17 12:00 0.00 ---- 7.12 2110 13.34
02/17 13:00 0.00 ---- 7.04 2050 13.28
02/17 14:00 0.00 ---- 6.98 2010 13.22
02/17 15:00 0.00 ---- 6.89 1960 13.03
02/17 16:00 0.00 ---- 6.87 1950 12.96
02/17 17:00 0.00 ---- 6.82 1920 12.94
02/17 18:00 0.00 ---- 6.77 1890 12.90
02/17 19:00 0.00 ---- 6.72 1850 12.75
02/17 20:00 0.00 ---- 6.67 1820 12.70
02/17 21:00 0.00 ---- 6.62 1790 12.67
02/17 22:00 0.00 ---- 6.56 1770 12.64
02/17 23:00 0.00 ---- 6.52 ---- 12.62
Data processed at Wed 18Feb2026 05:32 GMT

NOTICE: If you are parsing this page

Please convert to using our Data API. Starting early 2026 we will be migrating to: https://water.usace.army.mil with modern pages rendered in JavaScript. When this migration completes you will no longer be able to scrape this page! CWMSDataAPI (CDA)

Timeseries IDs (TSIDs)

TSIDs used from left to right in the data table
ANTL.Precip-Inc.Total.1Hour.1Hour.Ccp-Rev
ANTL.Precip-Inc Alt.Total.1Hour.1Hour.Ccp-Rev
ANTL.Stage.Inst.1Hour.0.Ccp-Rev
ANTL.Flow.Inst.1Hour.0.Ccp-Rev
ANTL.Volt-Battery Load.Inst.1Hour.0.Ccp-Rev

                            

All information presented herein is the property of the government of the United States of America and may be revised or deleted at any time without prior notice. Dissemination of this information without the expressed written consent of the Public Affairs Office, Tulsa District U.S. Army Corps of Engineers is strictly prohibited. These data are gathered electronically and, as presented, have NOT undergone any form of quality control. These data are NOT guaranteed to be valid or correct.